sensor_id;sensor_type;location;lat;lon;timestamp;temperature;humidity
75022;SHT31;63583;49.976;20.182;2023-08-24T00:00:40;19.26;72.98
75022;SHT31;63583;49.976;20.182;2023-08-24T00:03:26;19.20;73.22
75022;SHT31;63583;49.976;20.182;2023-08-24T00:05:52;19.16;73.49
75022;SHT31;63583;49.976;20.182;2023-08-24T00:08:17;19.17;73.64
75022;SHT31;63583;49.976;20.182;2023-08-24T00:10:43;19.11;73.86
75022;SHT31;63583;49.976;20.182;2023-08-24T00:13:12;19.11;73.71
75022;SHT31;63583;49.976;20.182;2023-08-24T00:15:37;19.13;73.47
75022;SHT31;63583;49.976;20.182;2023-08-24T00:18:05;18.99;74.08
75022;SHT31;63583;49.976;20.182;2023-08-24T00:20:31;18.81;74.64
75022;SHT31;63583;49.976;20.182;2023-08-24T00:23:00;18.77;74.58
75022;SHT31;63583;49.976;20.182;2023-08-24T00:25:27;18.71;74.84
75022;SHT31;63583;49.976;20.182;2023-08-24T00:27:53;18.66;74.30
75022;SHT31;63583;49.976;20.182;2023-08-24T00:30:19;18.68;74.06
75022;SHT31;63583;49.976;20.182;2023-08-24T00:32:44;18.66;73.89
75022;SHT31;63583;49.976;20.182;2023-08-24T00:35:10;18.69;73.67
75022;SHT31;63583;49.976;20.182;2023-08-24T00:37:36;18.71;73.41
75022;SHT31;63583;49.976;20.182;2023-08-24T00:40:04;18.72;73.36
75022;SHT31;63583;49.976;20.182;2023-08-24T00:42:40;18.71;73.42
75022;SHT31;63583;49.976;20.182;2023-08-24T00:45:11;18.72;73.45
75022;SHT31;63583;49.976;20.182;2023-08-24T00:47:38;18.63;74.30
75022;SHT31;63583;49.976;20.182;2023-08-24T00:50:06;18.61;74.19
75022;SHT31;63583;49.976;20.182;2023-08-24T00:52:32;18.62;74.33
75022;SHT31;63583;49.976;20.182;2023-08-24T00:55:01;18.56;74.61
75022;SHT31;63583;49.976;20.182;2023-08-24T00:57:27;18.51;74.19
75022;SHT31;63583;49.976;20.182;2023-08-24T00:59:55;18.52;74.14
75022;SHT31;63583;49.976;20.182;2023-08-24T01:02:20;18.52;74.30
75022;SHT31;63583;49.976;20.182;2023-08-24T01:04:47;18.55;74.04
75022;SHT31;63583;49.976;20.182;2023-08-24T01:07:13;18.52;74.64
75022;SHT31;63583;49.976;20.182;2023-08-24T01:09:40;18.47;74.79
75022;SHT31;63583;49.976;20.182;2023-08-24T01:12:29;18.44;75.00
75022;SHT31;63583;49.976;20.182;2023-08-24T01:15:12;18.38;75.35
75022;SHT31;63583;49.976;20.182;2023-08-24T01:17:39;18.38;75.33
75022;SHT31;63583;49.976;20.182;2023-08-24T01:20:07;18.35;75.64
75022;SHT31;63583;49.976;20.182;2023-08-24T01:22:53;18.33;75.61
75022;SHT31;63583;49.976;20.182;2023-08-24T01:25:28;18.33;76.05
75022;SHT31;63583;49.976;20.182;2023-08-24T01:27:57;18.25;76.22
75022;SHT31;63583;49.976;20.182;2023-08-24T01:30:24;18.25;76.20
75022;SHT31;63583;49.976;20.182;2023-08-24T01:32:51;18.21;76.64
75022;SHT31;63583;49.976;20.182;2023-08-24T01:35:17;18.20;76.47
75022;SHT31;63583;49.976;20.182;2023-08-24T01:37:42;18.17;76.45
75022;SHT31;63583;49.976;20.182;2023-08-24T01:40:24;18.14;76.81
75022;SHT31;63583;49.976;20.182;2023-08-24T01:43:01;18.07;77.13
75022;SHT31;63583;49.976;20.182;2023-08-24T01:45:30;18.07;77.11
75022;SHT31;63583;49.976;20.182;2023-08-24T01:47:57;18.03;77.21
75022;SHT31;63583;49.976;20.182;2023-08-24T01:50:24;18.00;77.19
75022;SHT31;63583;49.976;20.182;2023-08-24T01:52:50;18.03;76.73
75022;SHT31;63583;49.976;20.182;2023-08-24T01:55:20;18.00;76.21
75022;SHT31;63583;49.976;20.182;2023-08-24T01:57:45;17.97;76.28
75022;SHT31;63583;49.976;20.182;2023-08-24T02:00:12;17.96;76.01
75022;SHT31;63583;49.976;20.182;2023-08-24T02:02:37;17.96;76.62
75022;SHT31;63583;49.976;20.182;2023-08-24T02:05:03;17.89;76.69
75022;SHT31;63583;49.976;20.182;2023-08-24T02:07:29;17.85;77.24
75022;SHT31;63583;49.976;20.182;2023-08-24T02:09:55;17.83;77.28
75022;SHT31;63583;49.976;20.182;2023-08-24T02:12:20;17.80;78.22
75022;SHT31;63583;49.976;20.182;2023-08-24T02:14:46;17.72;78.97
75022;SHT31;63583;49.976;20.182;2023-08-24T02:17:12;17.63;79.41
75022;SHT31;63583;49.976;20.182;2023-08-24T02:19:37;17.59;79.75
75022;SHT31;63583;49.976;20.182;2023-08-24T02:22:03;17.46;79.94
75022;SHT31;63583;49.976;20.182;2023-08-24T02:24:29;17.45;79.72
75022;SHT31;63583;49.976;20.182;2023-08-24T02:26:54;17.39;79.70
75022;SHT31;63583;49.976;20.182;2023-08-24T02:29:20;17.34;79.75
75022;SHT31;63583;49.976;20.182;2023-08-24T02:31:46;17.35;79.54
75022;SHT31;63583;49.976;20.182;2023-08-24T02:34:14;17.32;79.37
75022;SHT31;63583;49.976;20.182;2023-08-24T02:36:40;17.35;79.51
75022;SHT31;63583;49.976;20.182;2023-08-24T02:39:06;17.38;79.11
75022;SHT31;63583;49.976;20.182;2023-08-24T02:41:33;17.43;78.61
75022;SHT31;63583;49.976;20.182;2023-08-24T02:43:59;17.38;78.65
75022;SHT31;63583;49.976;20.182;2023-08-24T02:46:25;17.34;78.52
75022;SHT31;63583;49.976;20.182;2023-08-24T02:48:51;17.32;78.46
75022;SHT31;63583;49.976;20.182;2023-08-24T02:51:16;17.32;78.46
75022;SHT31;63583;49.976;20.182;2023-08-24T02:53:42;17.27;78.78
75022;SHT31;63583;49.976;20.182;2023-08-24T02:56:07;17.20;78.55
75022;SHT31;63583;49.976;20.182;2023-08-24T02:58:33;17.17;78.75
75022;SHT31;63583;49.976;20.182;2023-08-24T03:00:59;17.17;78.73
75022;SHT31;63583;49.976;20.182;2023-08-24T03:03:25;17.20;78.75
75022;SHT31;63583;49.976;20.182;2023-08-24T03:05:55;17.20;78.55
75022;SHT31;63583;49.976;20.182;2023-08-24T03:08:20;17.21;78.64
75022;SHT31;63583;49.976;20.182;2023-08-24T03:10:46;17.24;78.55
75022;SHT31;63583;49.976;20.182;2023-08-24T03:13:13;17.24;78.54
75022;SHT31;63583;49.976;20.182;2023-08-24T03:15:39;17.21;78.49
75022;SHT31;63583;49.976;20.182;2023-08-24T03:18:05;17.24;78.21
75022;SHT31;63583;49.976;20.182;2023-08-24T03:20:30;17.21;78.15
75022;SHT31;63583;49.976;20.182;2023-08-24T03:22:56;17.21;78.23
75022;SHT31;63583;49.976;20.182;2023-08-24T03:25:23;17.22;78.19
75022;SHT31;63583;49.976;20.182;2023-08-24T03:27:48;17.21;78.13
75022;SHT31;63583;49.976;20.182;2023-08-24T03:30:14;17.22;78.21
75022;SHT31;63583;49.976;20.182;2023-08-24T03:32:40;17.17;78.47
75022;SHT31;63583;49.976;20.182;2023-08-24T03:35:06;17.20;78.17
75022;SHT31;63583;49.976;20.182;2023-08-24T03:37:33;17.24;77.70
75022;SHT31;63583;49.976;20.182;2023-08-24T03:39:58;17.27;77.50
75022;SHT31;63583;49.976;20.182;2023-08-24T03:42:24;17.25;77.64
75022;SHT31;63583;49.976;20.182;2023-08-24T03:44:50;17.32;77.20
75022;SHT31;63583;49.976;20.182;2023-08-24T03:47:15;17.31;77.03
75022;SHT31;63583;49.976;20.182;2023-08-24T03:49:43;17.31;77.08
75022;SHT31;63583;49.976;20.182;2023-08-24T03:52:09;17.35;76.71
75022;SHT31;63583;49.976;20.182;2023-08-24T03:54:34;17.34;77.04
75022;SHT31;63583;49.976;20.182;2023-08-24T03:57:01;17.34;77.05
75022;SHT31;63583;49.976;20.182;2023-08-24T03:59:26;17.34;76.91
75022;SHT31;63583;49.976;20.182;2023-08-24T04:01:52;17.42;76.73
75022;SHT31;63583;49.976;20.182;2023-08-24T04:04:18;17.48;76.75
75022;SHT31;63583;49.976;20.182;2023-08-24T04:06:43;17.48;76.98
75022;SHT31;63583;49.976;20.182;2023-08-24T04:09:09;17.52;77.09
75022;SHT31;63583;49.976;20.182;2023-08-24T04:11:34;17.62;76.78
75022;SHT31;63583;49.976;20.182;2023-08-24T04:14:00;17.65;76.71
75022;SHT31;63583;49.976;20.182;2023-08-24T04:16:26;17.69;76.66
75022;SHT31;63583;49.976;20.182;2023-08-24T04:18:52;17.70;77.02
75022;SHT31;63583;49.976;20.182;2023-08-24T04:21:18;17.83;76.41
75022;SHT31;63583;49.976;20.182;2023-08-24T04:23:43;17.85;76.42
75022;SHT31;63583;49.976;20.182;2023-08-24T04:26:11;17.79;76.47
75022;SHT31;63583;49.976;20.182;2023-08-24T04:28:37;17.83;76.50
75022;SHT31;63583;49.976;20.182;2023-08-24T04:31:03;17.91;76.46
75022;SHT31;63583;49.976;20.182;2023-08-24T04:33:29;18.01;76.42
75022;SHT31;63583;49.976;20.182;2023-08-24T04:35:54;18.04;76.19
75022;SHT31;63583;49.976;20.182;2023-08-24T04:38:20;17.97;76.46
75022;SHT31;63583;49.976;20.182;2023-08-24T04:40:50;18.00;76.80
75022;SHT31;63583;49.976;20.182;2023-08-24T04:43:17;18.14;76.18
75022;SHT31;63583;49.976;20.182;2023-08-24T04:45:42;18.28;76.10
75022;SHT31;63583;49.976;20.182;2023-08-24T04:48:08;18.38;76.05
75022;SHT31;63583;49.976;20.182;2023-08-24T04:50:33;18.56;74.86
75022;SHT31;63583;49.976;20.182;2023-08-24T04:52:59;18.72;74.38
75022;SHT31;63583;49.976;20.182;2023-08-24T04:55:25;19.00;73.97
75022;SHT31;63583;49.976;20.182;2023-08-24T04:57:50;19.14;73.58
75022;SHT31;63583;49.976;20.182;2023-08-24T05:00:16;19.28;72.85
75022;SHT31;63583;49.976;20.182;2023-08-24T05:02:42;19.51;71.55
75022;SHT31;63583;49.976;20.182;2023-08-24T05:05:08;19.64;71.62
75022;SHT31;63583;49.976;20.182;2023-08-24T05:07:40;19.71;71.36
75022;SHT31;63583;49.976;20.182;2023-08-24T05:10:07;19.92;70.89
75022;SHT31;63583;49.976;20.182;2023-08-24T05:12:33;19.78;72.21
75022;SHT31;63583;49.976;20.182;2023-08-24T05:15:02;19.95;72.35
75022;SHT31;63583;49.976;20.182;2023-08-24T05:17:27;20.12;71.41
75022;SHT31;63583;49.976;20.182;2023-08-24T05:19:54;20.17;72.11
75022;SHT31;63583;49.976;20.182;2023-08-24T05:22:19;20.36;71.73
75022;SHT31;63583;49.976;20.182;2023-08-24T05:24:46;20.47;71.71
75022;SHT31;63583;49.976;20.182;2023-08-24T05:27:12;20.51;71.50
75022;SHT31;63583;49.976;20.182;2023-08-24T05:29:38;20.65;71.89
75022;SHT31;63583;49.976;20.182;2023-08-24T05:32:03;20.74;72.28
75022;SHT31;63583;49.976;20.182;2023-08-24T05:34:29;20.81;72.41
75022;SHT31;63583;49.976;20.182;2023-08-24T05:36:54;20.85;71.52
75022;SHT31;63583;49.976;20.182;2023-08-24T05:39:20;20.87;71.36
75022;SHT31;63583;49.976;20.182;2023-08-24T05:41:46;20.91;72.50
75022;SHT31;63583;49.976;20.182;2023-08-24T05:44:15;21.08;72.46
75022;SHT31;63583;49.976;20.182;2023-08-24T05:46:42;21.33;72.84
75022;SHT31;63583;49.976;20.182;2023-08-24T05:49:32;21.28;71.63
75022;SHT31;63583;49.976;20.182;2023-08-24T05:51:58;21.33;71.45
75022;SHT31;63583;49.976;20.182;2023-08-24T05:54:23;21.35;72.14
75022;SHT31;63583;49.976;20.182;2023-08-24T05:56:49;21.33;71.01
75022;SHT31;63583;49.976;20.182;2023-08-24T05:59:15;21.36;71.73
75022;SHT31;63583;49.976;20.182;2023-08-24T06:01:41;21.54;71.16
75022;SHT31;63583;49.976;20.182;2023-08-24T06:04:07;21.76;71.90
75022;SHT31;63583;49.976;20.182;2023-08-24T06:06:34;21.77;71.63
75022;SHT31;63583;49.976;20.182;2023-08-24T06:08:59;21.81;72.79
75022;SHT31;63583;49.976;20.182;2023-08-24T06:11:25;21.78;71.85
75022;SHT31;63583;49.976;20.182;2023-08-24T06:13:50;21.74;72.20
75022;SHT31;63583;49.976;20.182;2023-08-24T06:16:19;21.88;71.87
75022;SHT31;63583;49.976;20.182;2023-08-24T06:18:45;21.94;72.09
75022;SHT31;63583;49.976;20.182;2023-08-24T06:21:10;22.04;72.47
75022;SHT31;63583;49.976;20.182;2023-08-24T06:23:36;21.95;72.77
75022;SHT31;63583;49.976;20.182;2023-08-24T06:26:04;22.06;72.44
75022;SHT31;63583;49.976;20.182;2023-08-24T06:28:30;21.80;74.00
75022;SHT31;63583;49.976;20.182;2023-08-24T06:30:56;22.12;73.33
75022;SHT31;63583;49.976;20.182;2023-08-24T06:33:42;22.12;72.69
75022;SHT31;63583;49.976;20.182;2023-08-24T06:36:08;22.12;73.18
75022;SHT31;63583;49.976;20.182;2023-08-24T06:38:34;22.12;73.48
75022;SHT31;63583;49.976;20.182;2023-08-24T06:41:02;22.11;72.91
75022;SHT31;63583;49.976;20.182;2023-08-24T06:43:28;22.14;73.39
75022;SHT31;63583;49.976;20.182;2023-08-24T06:45:57;22.21;73.34
75022;SHT31;63583;49.976;20.182;2023-08-24T06:48:23;22.24;73.40
75022;SHT31;63583;49.976;20.182;2023-08-24T06:50:49;22.22;73.67
75022;SHT31;63583;49.976;20.182;2023-08-24T06:53:14;22.21;72.78
75022;SHT31;63583;49.976;20.182;2023-08-24T06:55:40;22.12;72.76
75022;SHT31;63583;49.976;20.182;2023-08-24T06:58:06;22.22;73.57
75022;SHT31;63583;49.976;20.182;2023-08-24T07:00:32;22.19;73.32
75022;SHT31;63583;49.976;20.182;2023-08-24T07:02:58;22.31;73.82
75022;SHT31;63583;49.976;20.182;2023-08-24T07:05:25;22.22;73.15
75022;SHT31;63583;49.976;20.182;2023-08-24T07:07:50;22.25;73.79
75022;SHT31;63583;49.976;20.182;2023-08-24T07:10:16;22.46;73.63
75022;SHT31;63583;49.976;20.182;2023-08-24T07:12:44;22.56;72.62
75022;SHT31;63583;49.976;20.182;2023-08-24T07:15:11;22.67;72.19
75022;SHT31;63583;49.976;20.182;2023-08-24T07:17:37;22.46;71.67
75022;SHT31;63583;49.976;20.182;2023-08-24T07:20:04;22.46;71.23
75022;SHT31;63583;49.976;20.182;2023-08-24T07:22:49;22.39;71.80
75022;SHT31;63583;49.976;20.182;2023-08-24T07:25:16;22.48;71.50
75022;SHT31;63583;49.976;20.182;2023-08-24T07:27:42;22.46;71.29
75022;SHT31;63583;49.976;20.182;2023-08-24T07:30:09;22.59;72.04
75022;SHT31;63583;49.976;20.182;2023-08-24T07:32:36;22.49;72.61
75022;SHT31;63583;49.976;20.182;2023-08-24T07:35:01;22.35;72.52
75022;SHT31;63583;49.976;20.182;2023-08-24T07:37:27;22.67;72.39
75022;SHT31;63583;49.976;20.182;2023-08-24T07:39:53;22.83;70.31
75022;SHT31;63583;49.976;20.182;2023-08-24T07:42:20;22.97;71.31
75022;SHT31;63583;49.976;20.182;2023-08-24T07:44:47;23.00;70.07
75022;SHT31;63583;49.976;20.182;2023-08-24T07:47:13;23.11;70.27
75022;SHT31;63583;49.976;20.182;2023-08-24T07:49:39;23.17;70.41
75022;SHT31;63583;49.976;20.182;2023-08-24T07:52:11;23.22;67.72
75022;SHT31;63583;49.976;20.182;2023-08-24T07:54:38;23.34;67.00
75022;SHT31;63583;49.976;20.182;2023-08-24T07:57:05;22.83;67.44
75022;SHT31;63583;49.976;20.182;2023-08-24T07:59:30;22.96;68.51
75022;SHT31;63583;49.976;20.182;2023-08-24T08:01:56;22.97;68.98
75022;SHT31;63583;49.976;20.182;2023-08-24T08:04:22;23.08;67.56
75022;SHT31;63583;49.976;20.182;2023-08-24T08:06:48;23.04;65.60
75022;SHT31;63583;49.976;20.182;2023-08-24T08:09:13;23.11;67.05
75022;SHT31;63583;49.976;20.182;2023-08-24T08:11:39;23.17;66.87
75022;SHT31;63583;49.976;20.182;2023-08-24T08:14:05;23.24;68.15
75022;SHT31;63583;49.976;20.182;2023-08-24T08:16:30;23.07;68.65
75022;SHT31;63583;49.976;20.182;2023-08-24T08:18:56;23.01;68.39
75022;SHT31;63583;49.976;20.182;2023-08-24T08:21:22;22.97;68.25
75022;SHT31;63583;49.976;20.182;2023-08-24T08:23:49;23.04;69.26
75022;SHT31;63583;49.976;20.182;2023-08-24T08:26:15;23.15;68.75
75022;SHT31;63583;49.976;20.182;2023-08-24T08:28:42;23.24;68.68
75022;SHT31;63583;49.976;20.182;2023-08-24T08:31:07;23.47;68.18
75022;SHT31;63583;49.976;20.182;2023-08-24T08:33:33;23.59;66.73
75022;SHT31;63583;49.976;20.182;2023-08-24T08:35:59;23.70;66.20
75022;SHT31;63583;49.976;20.182;2023-08-24T08:38:25;23.77;66.13
75022;SHT31;63583;49.976;20.182;2023-08-24T08:40:54;23.82;66.35
75022;SHT31;63583;49.976;20.182;2023-08-24T08:43:22;23.82;66.97
75022;SHT31;63583;49.976;20.182;2023-08-24T08:45:51;23.90;66.58
75022;SHT31;63583;49.976;20.182;2023-08-24T08:48:18;23.90;64.63
75022;SHT31;63583;49.976;20.182;2023-08-24T08:50:48;23.99;65.64
75022;SHT31;63583;49.976;20.182;2023-08-24T08:53:15;23.97;65.11
75022;SHT31;63583;49.976;20.182;2023-08-24T08:55:41;24.07;65.48
75022;SHT31;63583;49.976;20.182;2023-08-24T08:58:07;24.14;64.55
75022;SHT31;63583;49.976;20.182;2023-08-24T09:00:33;24.17;63.46
75022;SHT31;63583;49.976;20.182;2023-08-24T09:03:01;23.93;64.16
75022;SHT31;63583;49.976;20.182;2023-08-24T09:05:28;24.18;62.84
75022;SHT31;63583;49.976;20.182;2023-08-24T09:07:54;24.20;63.48
75022;SHT31;63583;49.976;20.182;2023-08-24T09:10:22;24.37;61.24
75022;SHT31;63583;49.976;20.182;2023-08-24T09:12:48;24.60;62.74
75022;SHT31;63583;49.976;20.182;2023-08-24T09:15:13;24.64;63.80
75022;SHT31;63583;49.976;20.182;2023-08-24T09:17:43;24.76;63.53
75022;SHT31;63583;49.976;20.182;2023-08-24T09:20:09;24.61;62.02
75022;SHT31;63583;49.976;20.182;2023-08-24T09:22:36;24.52;59.90
75022;SHT31;63583;49.976;20.182;2023-08-24T09:25:02;24.43;61.19
75022;SHT31;63583;49.976;20.182;2023-08-24T09:27:32;24.73;61.15
75022;SHT31;63583;49.976;20.182;2023-08-24T09:29:57;24.72;60.07
75022;SHT31;63583;49.976;20.182;2023-08-24T09:32:31;24.69;60.90
75022;SHT31;63583;49.976;20.182;2023-08-24T09:35:20;24.40;60.88
75022;SHT31;63583;49.976;20.182;2023-08-24T09:37:49;24.37;60.72
75022;SHT31;63583;49.976;20.182;2023-08-24T09:40:15;24.61;61.20
75022;SHT31;63583;49.976;20.182;2023-08-24T09:42:42;24.78;56.39
75022;SHT31;63583;49.976;20.182;2023-08-24T09:45:11;24.71;57.47
75022;SHT31;63583;49.976;20.182;2023-08-24T09:47:37;24.92;61.44
75022;SHT31;63583;49.976;20.182;2023-08-24T09:50:04;25.24;57.46
75022;SHT31;63583;49.976;20.182;2023-08-24T09:52:32;24.92;56.16
75022;SHT31;63583;49.976;20.182;2023-08-24T09:55:05;25.17;56.74
75022;SHT31;63583;49.976;20.182;2023-08-24T09:57:36;25.60;56.54
75022;SHT31;63583;49.976;20.182;2023-08-24T10:00:06;25.82;57.54
75022;SHT31;63583;49.976;20.182;2023-08-24T10:02:48;26.11;56.46
75022;SHT31;63583;49.976;20.182;2023-08-24T10:05:24;26.13;53.54
75022;SHT31;63583;49.976;20.182;2023-08-24T10:07:53;26.26;53.13
75022;SHT31;63583;49.976;20.182;2023-08-24T10:10:21;26.08;51.80
75022;SHT31;63583;49.976;20.182;2023-08-24T10:12:51;26.06;51.84
75022;SHT31;63583;49.976;20.182;2023-08-24T10:15:17;26.01;48.23
75022;SHT31;63583;49.976;20.182;2023-08-24T10:17:44;26.04;47.31
75022;SHT31;63583;49.976;20.182;2023-08-24T10:20:10;26.09;48.36
75022;SHT31;63583;49.976;20.182;2023-08-24T10:22:37;25.91;50.17
75022;SHT31;63583;49.976;20.182;2023-08-24T10:25:07;25.86;50.28
75022;SHT31;63583;49.976;20.182;2023-08-24T10:27:34;26.08;49.58
75022;SHT31;63583;49.976;20.182;2023-08-24T10:30:00;26.23;52.28
75022;SHT31;63583;49.976;20.182;2023-08-24T10:32:26;26.39;50.90
75022;SHT31;63583;49.976;20.182;2023-08-24T10:34:53;26.56;48.07
75022;SHT31;63583;49.976;20.182;2023-08-24T10:37:25;26.53;47.47
75022;SHT31;63583;49.976;20.182;2023-08-24T10:39:51;26.54;48.28
75022;SHT31;63583;49.976;20.182;2023-08-24T10:42:16;26.50;48.41
75022;SHT31;63583;49.976;20.182;2023-08-24T10:44:46;26.46;49.04
75022;SHT31;63583;49.976;20.182;2023-08-24T10:47:19;26.37;48.84
75022;SHT31;63583;49.976;20.182;2023-08-24T10:49:58;26.42;51.54
75022;SHT31;63583;49.976;20.182;2023-08-24T10:52:31;26.43;49.18
75022;SHT31;63583;49.976;20.182;2023-08-24T10:55:01;26.52;51.04
75022;SHT31;63583;49.976;20.182;2023-08-24T10:57:35;26.57;50.73
75022;SHT31;63583;49.976;20.182;2023-08-24T11:02:51;26.65;47.78
75022;SHT31;63583;49.976;20.182;2023-08-24T11:05:25;26.46;49.43
75022;SHT31;63583;49.976;20.182;2023-08-24T11:07:54;26.36;49.50
75022;SHT31;63583;49.976;20.182;2023-08-24T11:10:21;26.53;51.59
75022;SHT31;63583;49.976;20.182;2023-08-24T11:13:06;26.73;49.37
75022;SHT31;63583;49.976;20.182;2023-08-24T11:15:52;26.86;48.75
75022;SHT31;63583;49.976;20.182;2023-08-24T11:18:27;26.79;49.13
75022;SHT31;63583;49.976;20.182;2023-08-24T11:20:55;26.88;51.46
75022;SHT31;63583;49.976;20.182;2023-08-24T11:23:22;26.98;50.68
75022;SHT31;63583;49.976;20.182;2023-08-24T11:25:53;27.07;49.49
75022;SHT31;63583;49.976;20.182;2023-08-24T11:28:22;26.59;49.11
75022;SHT31;63583;49.976;20.182;2023-08-24T11:30:49;26.61;48.53
75022;SHT31;63583;49.976;20.182;2023-08-24T11:33:16;26.92;47.89
75022;SHT31;63583;49.976;20.182;2023-08-24T11:35:44;27.11;45.46
75022;SHT31;63583;49.976;20.182;2023-08-24T11:38:11;26.88;46.22
75022;SHT31;63583;49.976;20.182;2023-08-24T11:40:37;26.65;47.18
75022;SHT31;63583;49.976;20.182;2023-08-24T11:43:03;26.73;46.61
75022;SHT31;63583;49.976;20.182;2023-08-24T11:45:32;26.76;46.58
75022;SHT31;63583;49.976;20.182;2023-08-24T11:47:59;26.81;46.82
75022;SHT31;63583;49.976;20.182;2023-08-24T11:50:31;26.86;47.70
75022;SHT31;63583;49.976;20.182;2023-08-24T11:52:56;26.77;45.53
75022;SHT31;63583;49.976;20.182;2023-08-24T11:55:23;26.86;46.02
75022;SHT31;63583;49.976;20.182;2023-08-24T11:57:49;26.80;47.05
75022;SHT31;63583;49.976;20.182;2023-08-24T12:00:17;26.90;44.72
75022;SHT31;63583;49.976;20.182;2023-08-24T12:02:43;27.02;46.32
75022;SHT31;63583;49.976;20.182;2023-08-24T12:05:25;27.12;46.59
75022;SHT31;63583;49.976;20.182;2023-08-24T12:07:53;27.26;45.35
75022;SHT31;63583;49.976;20.182;2023-08-24T12:10:20;27.32;45.23
75022;SHT31;63583;49.976;20.182;2023-08-24T12:12:46;27.39;43.36
75022;SHT31;63583;49.976;20.182;2023-08-24T12:15:15;27.31;45.05
75022;SHT31;63583;49.976;20.182;2023-08-24T12:17:43;27.22;45.88
75022;SHT31;63583;49.976;20.182;2023-08-24T12:20:17;27.19;44.81
75022;SHT31;63583;49.976;20.182;2023-08-24T12:22:43;27.19;45.21
75022;SHT31;63583;49.976;20.182;2023-08-24T12:25:09;27.18;44.73
75022;SHT31;63583;49.976;20.182;2023-08-24T12:27:35;27.32;45.09
75022;SHT31;63583;49.976;20.182;2023-08-24T12:30:01;27.22;46.12
75022;SHT31;63583;49.976;20.182;2023-08-24T12:32:42;27.34;45.21
75022;SHT31;63583;49.976;20.182;2023-08-24T12:35:08;27.31;44.29
75022;SHT31;63583;49.976;20.182;2023-08-24T12:37:35;27.31;46.88
75022;SHT31;63583;49.976;20.182;2023-08-24T12:40:04;27.50;45.08
75022;SHT31;63583;49.976;20.182;2023-08-24T12:42:31;27.47;44.68
75022;SHT31;63583;49.976;20.182;2023-08-24T12:44:57;27.42;45.59
75022;SHT31;63583;49.976;20.182;2023-08-24T12:47:23;27.45;45.44
75022;SHT31;63583;49.976;20.182;2023-08-24T12:49:49;27.59;46.05
75022;SHT31;63583;49.976;20.182;2023-08-24T12:52:16;27.55;44.15
75022;SHT31;63583;49.976;20.182;2023-08-24T12:54:42;27.35;44.83
75022;SHT31;63583;49.976;20.182;2023-08-24T12:57:08;27.34;46.67
75022;SHT31;63583;49.976;20.182;2023-08-24T12:59:34;26.98;46.09
75022;SHT31;63583;49.976;20.182;2023-08-24T13:01:59;27.04;46.57
75022;SHT31;63583;49.976;20.182;2023-08-24T13:04:26;27.11;46.56
75022;SHT31;63583;49.976;20.182;2023-08-24T13:06:53;27.24;46.80
75022;SHT31;63583;49.976;20.182;2023-08-24T13:09:19;26.71;46.40
75022;SHT31;63583;49.976;20.182;2023-08-24T13:11:44;26.91;46.48
75022;SHT31;63583;49.976;20.182;2023-08-24T13:14:10;26.70;46.51
75022;SHT31;63583;49.976;20.182;2023-08-24T13:16:36;26.64;47.46
75022;SHT31;63583;49.976;20.182;2023-08-24T13:19:01;26.73;47.02
75022;SHT31;63583;49.976;20.182;2023-08-24T13:21:27;26.76;48.01
75022;SHT31;63583;49.976;20.182;2023-08-24T13:23:53;26.87;48.72
75022;SHT31;63583;49.976;20.182;2023-08-24T13:26:20;26.79;47.50
75022;SHT31;63583;49.976;20.182;2023-08-24T13:28:47;26.99;49.59
75022;SHT31;63583;49.976;20.182;2023-08-24T13:31:13;27.12;47.69
75022;SHT31;63583;49.976;20.182;2023-08-24T13:33:38;27.14;47.07
75022;SHT31;63583;49.976;20.182;2023-08-24T13:36:04;27.24;46.90
75022;SHT31;63583;49.976;20.182;2023-08-24T13:38:30;27.08;48.27
75022;SHT31;63583;49.976;20.182;2023-08-24T13:40:56;27.24;46.53
75022;SHT31;63583;49.976;20.182;2023-08-24T13:43:22;27.31;46.52
75022;SHT31;63583;49.976;20.182;2023-08-24T13:45:48;27.28;46.74
75022;SHT31;63583;49.976;20.182;2023-08-24T13:48:14;27.38;46.95
75022;SHT31;63583;49.976;20.182;2023-08-24T13:50:41;27.36;46.14
75022;SHT31;63583;49.976;20.182;2023-08-24T13:53:07;27.26;47.71
75022;SHT31;63583;49.976;20.182;2023-08-24T13:55:32;27.42;47.32
75022;SHT31;63583;49.976;20.182;2023-08-24T13:57:58;27.12;47.94
75022;SHT31;63583;49.976;20.182;2023-08-24T14:00:24;27.09;47.68
75022;SHT31;63583;49.976;20.182;2023-08-24T14:02:51;27.07;48.08
75022;SHT31;63583;49.976;20.182;2023-08-24T14:05:16;27.25;47.49
75022;SHT31;63583;49.976;20.182;2023-08-24T14:07:42;27.43;47.15
75022;SHT31;63583;49.976;20.182;2023-08-24T14:10:08;27.47;46.29
75022;SHT31;63583;49.976;20.182;2023-08-24T14:12:34;27.63;46.15
75022;SHT31;63583;49.976;20.182;2023-08-24T14:15:00;27.52;47.01
75022;SHT31;63583;49.976;20.182;2023-08-24T14:17:26;27.38;46.22
75022;SHT31;63583;49.976;20.182;2023-08-24T14:19:51;27.36;47.29
75022;SHT31;63583;49.976;20.182;2023-08-24T14:22:17;27.56;47.33
75022;SHT31;63583;49.976;20.182;2023-08-24T14:24:43;27.60;47.53
75022;SHT31;63583;49.976;20.182;2023-08-24T14:27:08;27.66;47.85
75022;SHT31;63583;49.976;20.182;2023-08-24T14:29:34;27.60;46.92
75022;SHT31;63583;49.976;20.182;2023-08-24T14:31:59;27.24;47.11
75022;SHT31;63583;49.976;20.182;2023-08-24T14:34:25;27.02;48.20
75022;SHT31;63583;49.976;20.182;2023-08-24T14:36:51;26.98;48.45
75022;SHT31;63583;49.976;20.182;2023-08-24T14:39:16;27.11;49.03
75022;SHT31;63583;49.976;20.182;2023-08-24T14:41:42;27.29;48.19
75022;SHT31;63583;49.976;20.182;2023-08-24T14:44:08;27.29;47.59
75022;SHT31;63583;49.976;20.182;2023-08-24T14:46:33;27.36;47.90
75022;SHT31;63583;49.976;20.182;2023-08-24T14:48:59;27.31;48.26
75022;SHT31;63583;49.976;20.182;2023-08-24T14:51:25;26.69;48.99
75022;SHT31;63583;49.976;20.182;2023-08-24T14:53:51;26.49;49.74
75022;SHT31;63583;49.976;20.182;2023-08-24T14:56:16;26.26;48.80
75022;SHT31;63583;49.976;20.182;2023-08-24T14:58:42;26.39;50.23
75022;SHT31;63583;49.976;20.182;2023-08-24T15:01:08;25.96;50.88
75022;SHT31;63583;49.976;20.182;2023-08-24T15:03:33;25.96;51.63
75022;SHT31;63583;49.976;20.182;2023-08-24T15:06:01;25.85;51.52
75022;SHT31;63583;49.976;20.182;2023-08-24T15:08:29;25.80;51.26
75022;SHT31;63583;49.976;20.182;2023-08-24T15:10:58;25.68;52.54
75022;SHT31;63583;49.976;20.182;2023-08-24T15:13:25;25.67;52.80
75022;SHT31;63583;49.976;20.182;2023-08-24T15:15:53;25.48;52.78
75022;SHT31;63583;49.976;20.182;2023-08-24T15:18:19;25.29;54.38